Time;durP1;ratioP1;P1;durP2;ratioP2;P2;SDS_P1;SDS_P2;PMS_P1;PMS_P2;Temp;Humidity;BMP_temperature;BMP_pressure;BME280_temperature;BME280_humidity;BME280_pressure;Samples;Min_cycle;Max_cycle;Signal;HPM_P1;HPM_P2
2022/06/08 00:01:25;;;;;;;0.77;0.77;;;;;;;;;;4994820;28;20212;-78
2022/06/08 00:03:56;;;;;;;0.80;0.80;;;;;;;;;;4994084;28;20282;-79
2022/06/08 00:06:23;;;;;;;1.00;1.00;;;;;;;;;;4995020;28;20204;-77
2022/06/08 00:08:52;;;;;;;0.90;0.90;;;;;;;;;;4994652;28;20234;-79
2022/06/08 00:11:20;;;;;;;0.80;0.80;;;;;;;;;;4994772;28;20208;-78
2022/06/08 00:13:48;;;;;;;1.00;0.82;;;;;;;;;;4994063;28;20605;-78
2022/06/08 00:16:16;;;;;;;1.58;0.70;;;;;;;;;;4994871;28;20638;-78
2022/06/08 00:18:45;;;;;;;0.65;0.65;;;;;;;;;;4994556;28;20223;-78
2022/06/08 00:21:13;;;;;;;0.88;0.88;;;;;;;;;;4994844;28;20196;-78
2022/06/08 00:23:42;;;;;;;0.90;0.90;;;;;;;;;;4993907;28;20266;-79
2022/06/08 00:26:11;;;;;;;0.80;0.80;;;;;;;;;;4994907;28;20199;-78
2022/06/08 00:28:39;;;;;;;1.15;1.10;;;;;;;;;;4994321;28;20234;-78
2022/06/08 00:31:07;;;;;;;0.80;0.80;;;;;;;;;;4994768;28;20210;-78
2022/06/08 00:33:34;;;;;;;0.80;0.80;;;;;;;;;;4993416;28;20203;-78
2022/06/08 00:36:02;;;;;;;1.08;1.00;;;;;;;;;;4994364;28;20290;-78
2022/06/08 00:38:30;;;;;;;0.88;0.88;;;;;;;;;;4994173;28;20224;-77
2022/06/08 00:41:08;;;;;;;0.80;0.80;;;;;;;;;;4994147;28;20204;-78
2022/06/08 00:43:37;;;;;;;0.82;0.82;;;;;;;;;;4991375;28;20231;-78
2022/06/08 00:46:06;;;;;;;0.68;0.68;;;;;;;;;;4994077;28;20208;-77
2022/06/08 00:48:38;;;;;;;1.02;1.02;;;;;;;;;;4994299;28;20229;-78
2022/06/08 00:51:06;;;;;;;0.90;0.90;;;;;;;;;;4994418;28;20235;-79
2022/06/08 00:53:40;;;;;;;0.95;0.93;;;;;;;;;;4992056;28;20287;-79
2022/06/08 00:56:13;;;;;;;2.13;0.90;;;;;;;;;;4994507;28;20298;-78
2022/06/08 00:58:42;;;;;;;0.57;0.57;;;;;;;;;;4994253;28;20245;-78
2022/06/08 01:01:10;;;;;;;0.88;0.88;;;;;;;;;;4994475;28;20649;-79
2022/06/08 01:03:38;;;;;;;0.70;0.70;;;;;;;;;;4993309;28;20262;-78
2022/06/08 01:06:14;;;;;;;0.77;0.77;;;;;;;;;;4994267;28;20246;-78
2022/06/08 01:08:46;;;;;;;0.80;0.80;;;;;;;;;;4994267;28;20262;-78
2022/06/08 01:11:23;;;;;;;2.47;1.13;;;;;;;;;;4994393;28;20330;-78
2022/06/08 01:13:52;;;;;;;0.80;0.80;;;;;;;;;;4993480;28;20206;-78
2022/06/08 01:16:20;;;;;;;0.80;0.80;;;;;;;;;;4994503;28;20290;-78
2022/06/08 01:18:48;;;;;;;0.70;0.70;;;;;;;;;;4993955;28;20779;-79
2022/06/08 01:21:55;;;;;;;1.60;1.25;;;;;;;;;;4994304;28;20283;-78
2022/06/08 01:24:23;;;;;;;0.90;0.90;;;;;;;;;;4988294;28;20231;-77
2022/06/08 01:27:28;;;;;;;1.00;1.00;;;;;;;;;;4994162;28;20702;-77
2022/06/08 01:30:15;;;;;;;1.20;1.20;;;;;;;;;;4971494;28;20238;-77
2022/06/08 01:33:26;;;;;;;1.63;0.80;;;;;;;;;;4993748;28;20292;-78
2022/06/08 01:36:25;;;;;;;1.73;1.15;;;;;;;;;;4994107;28;20287;-79
2022/06/08 01:39:03;;;;;;;0.90;0.85;;;;;;;;;;4993794;28;20602;-78
2022/06/08 01:42:07;;;;;;;0.90;0.90;;;;;;;;;;4993957;28;20207;-77
2022/06/08 01:48:01;;;;;;;0.50;0.50;;;;;;;;;;4993739;28;20246;-79
2022/06/08 01:50:37;;;;;;;0.70;0.70;;;;;;;;;;4993860;28;20239;-78
2022/06/08 01:53:08;;;;;;;1.00;1.00;;;;;;;;;;4992956;28;20290;-76
2022/06/08 01:55:46;;;;;;;0.70;0.70;;;;;;;;;;4993274;28;20630;-79
2022/06/08 01:58:19;;;;;;;0.70;0.70;;;;;;;;;;4993805;28;20291;-77
2022/06/08 02:00:49;;;;;;;0.70;0.70;;;;;;;;;;4994321;28;20302;-79
2022/06/08 02:03:22;;;;;;;0.90;0.90;;;;;;;;;;4993339;28;20298;-78
2022/06/08 02:05:57;;;;;;;1.27;0.90;;;;;;;;;;4993686;28;20278;-78
2022/06/08 02:08:31;;;;;;;1.30;1.08;;;;;;;;;;4993686;28;20318;-78
2022/06/08 02:11:08;;;;;;;0.80;0.80;;;;;;;;;;4995756;28;20691;-78
2022/06/08 02:13:39;;;;;;;0.80;0.80;;;;;;;;;;4996465;28;20203;-78
2022/06/08 02:16:10;;;;;;;0.70;0.70;;;;;;;;;;5000639;28;20249;-78
2022/06/08 02:18:42;;;;;;;0.70;0.70;;;;;;;;;;5001403;28;20595;-77
2022/06/08 02:21:15;;;;;;;0.90;0.90;;;;;;;;;;4997228;28;20235;-78
2022/06/08 02:23:49;;;;;;;0.88;0.88;;;;;;;;;;4996499;28;20236;-78
2022/06/08 02:26:20;;;;;;;0.60;0.60;;;;;;;;;;4996692;28;20231;-77
2022/06/08 02:28:51;;;;;;;1.00;1.00;;;;;;;;;;4996407;28;20232;-78
2022/06/08 02:31:21;;;;;;;0.73;0.73;;;;;;;;;;4996554;28;20210;-78
2022/06/08 02:36:45;;;;;;;0.73;0.73;;;;;;;;;;4996687;28;20679;-79
2022/06/08 02:39:17;;;;;;;0.73;0.73;;;;;;;;;;4996145;28;20287;-78
2022/06/08 02:41:51;;;;;;;0.70;0.70;;;;;;;;;;4996018;28;20266;-78
2022/06/08 02:44:22;;;;;;;0.73;0.73;;;;;;;;;;4996370;28;20298;-78
2022/06/08 02:46:58;;;;;;;0.68;0.68;;;;;;;;;;4996098;28;20294;-79
2022/06/08 02:49:25;;;;;;;1.38;1.27;;;;;;;;;;4996637;28;20688;-78
2022/06/08 02:51:58;;;;;;;0.98;0.98;;;;;;;;;;4995842;28;20663;-77
2022/06/08 02:54:28;;;;;;;0.80;0.80;;;;;;;;;;4996723;28;20210;-78
2022/06/08 02:57:11;;;;;;;0.90;0.90;;;;;;;;;;4996260;28;20210;-78
2022/06/08 02:59:48;;;;;;;1.00;1.00;;;;;;;;;;4996085;28;20684;-77
2022/06/08 03:02:21;;;;;;;0.90;0.90;;;;;;;;;;4995490;28;20211;-78
2022/06/08 03:04:55;;;;;;;1.45;1.20;;;;;;;;;;4995979;28;20291;-78
2022/06/08 03:07:28;;;;;;;1.20;1.20;;;;;;;;;;4994247;28;20595;-78
2022/06/08 03:09:56;;;;;;;1.27;1.02;;;;;;;;;;4996044;28;20239;-77
2022/06/08 03:12:35;;;;;;;1.02;1.00;;;;;;;;;;4995138;28;20203;-78
2022/06/08 03:15:03;;;;;;;1.23;1.23;;;;;;;;;;4996045;28;20580;-78
2022/06/08 03:17:34;;;;;;;1.25;1.15;;;;;;;;;;4995531;28;20314;-78
2022/06/08 03:20:05;;;;;;;0.88;0.88;;;;;;;;;;4995990;28;20715;-78
2022/06/08 03:22:32;;;;;;;0.70;0.70;;;;;;;;;;4994848;28;20210;-79
2022/06/08 03:25:00;;;;;;;0.75;0.75;;;;;;;;;;4995661;28;20318;-78
2022/06/08 03:27:29;;;;;;;0.70;0.70;;;;;;;;;;4995271;28;20258;-78
2022/06/08 03:29:56;;;;;;;0.77;0.77;;;;;;;;;;4995277;28;20257;-78
2022/06/08 03:32:24;;;;;;;0.90;0.90;;;;;;;;;;4994930;28;20218;-78
2022/06/08 03:34:52;;;;;;;1.17;1.10;;;;;;;;;;5018002;22;20266;-80
2022/06/08 03:37:19;;;;;;;0.73;0.73;;;;;;;;;;4994966;28;20628;-78
2022/06/08 03:39:47;;;;;;;0.60;0.60;;;;;;;;;;4994907;28;20199;-79
2022/06/08 03:42:14;;;;;;;0.88;0.88;;;;;;;;;;4993070;28;20295;-80
2022/06/08 03:44:43;;;;;;;1.00;1.00;;;;;;;;;;4994672;28;20262;-77
2022/06/08 03:47:15;;;;;;;0.85;0.85;;;;;;;;;;4993576;28;20310;-76
2022/06/08 03:49:43;;;;;;;1.00;1.00;;;;;;;;;;4994392;28;20278;-77
2022/06/08 03:52:14;;;;;;;0.90;0.90;;;;;;;;;;4993517;28;20688;-76
2022/06/08 03:54:45;;;;;;;0.82;0.82;;;;;;;;;;4995642;28;20311;-78
2022/06/08 03:57:14;;;;;;;0.90;0.90;;;;;;;;;;4988202;28;20616;-77
2022/06/08 03:59:44;;;;;;;0.57;0.57;;;;;;;;;;4974918;28;20683;-79
2022/06/08 04:02:12;;;;;;;1.75;1.10;;;;;;;;;;4974909;28;20244;-81
2022/06/08 04:04:41;;;;;;;1.02;1.00;;;;;;;;;;4976333;28;20255;-80
2022/06/08 04:07:10;;;;;;;1.38;1.30;;;;;;;;;;4975813;28;20224;-80
2022/06/08 04:09:38;;;;;;;1.70;1.45;;;;;;;;;;4975704;28;20255;-80
2022/06/08 04:12:06;;;;;;;1.83;1.42;;;;;;;;;;4974731;28;20202;-80
2022/06/08 04:14:34;;;;;;;1.30;1.20;;;;;;;;;;4974642;28;20230;-80
2022/06/08 04:17:03;;;;;;;1.20;1.17;;;;;;;;;;4975845;28;20235;-80
2022/06/08 04:19:32;;;;;;;1.92;1.10;;;;;;;;;;4975510;28;20242;-80
2022/06/08 04:22:00;;;;;;;1.60;1.50;;;;;;;;;;4975028;28;20211;-80
2022/06/08 04:24:27;;;;;;;1.25;1.25;;;;;;;;;;4975495;28;20235;-79
2022/06/08 04:26:56;;;;;;;1.45;1.30;;;;;;;;;;4975715;28;20279;-80
2022/06/08 04:29:24;;;;;;;1.50;1.05;;;;;;;;;;4976104;28;20267;-80
2022/06/08 04:31:51;;;;;;;1.70;1.15;;;;;;;;;;4974959;28;20246;-80
2022/06/08 04:34:20;;;;;;;1.20;1.10;;;;;;;;;;4974884;28;20267;-80
2022/06/08 04:36:48;;;;;;;1.00;1.00;;;;;;;;;;4976104;28;20283;-79
2022/06/08 04:39:17;;;;;;;0.90;0.90;;;;;;;;;;4975715;28;20235;-80
2022/06/08 04:41:45;;;;;;;1.25;1.15;;;;;;;;;;4974139;28;20251;-81
2022/06/08 04:44:13;;;;;;;1.50;1.40;;;;;;;;;;4975061;28;20228;-81
2022/06/08 04:46:41;;;;;;;1.10;1.10;;;;;;;;;;4975130;28;20232;-80
2022/06/08 04:49:09;;;;;;;1.13;1.13;;;;;;;;;;4975478;28;20204;-79
2022/06/08 04:51:38;;;;;;;0.90;0.90;;;;;;;;;;4972815;28;20208;-79
2022/06/08 04:54:06;;;;;;;1.50;1.40;;;;;;;;;;4973077;28;20318;-79
2022/06/08 04:56:34;;;;;;;1.33;1.23;;;;;;;;;;4973066;28;20235;-80
2022/06/08 04:59:01;;;;;;;1.40;1.40;;;;;;;;;;4987432;28;20203;-79
2022/06/08 05:01:29;;;;;;;1.30;1.20;;;;;;;;;;4992163;28;20283;-79
2022/06/08 05:03:57;;;;;;;1.50;1.40;;;;;;;;;;4992061;28;20287;-79
2022/06/08 05:06:25;;;;;;;1.80;1.70;;;;;;;;;;4993024;28;20224;-80
2022/06/08 05:08:55;;;;;;;2.10;1.80;;;;;;;;;;4992659;28;20203;-80
2022/06/08 05:11:22;;;;;;;1.48;1.40;;;;;;;;;;4992646;28;20294;-79
2022/06/08 05:13:50;;;;;;;2.17;1.77;;;;;;;;;;4991596;28;20627;-80
2022/06/08 05:16:18;;;;;;;2.00;1.77;;;;;;;;;;4992887;28;20559;-79
2022/06/08 05:18:45;;;;;;;1.50;1.40;;;;;;;;;;4992303;28;20235;-80
2022/06/08 05:21:13;;;;;;;1.67;1.58;;;;;;;;;;4993219;28;20227;-87
2022/06/08 05:23:46;;;;;;;1.60;1.50;;;;;;;;;;4992645;28;20217;-86
2022/06/08 05:26:18;;;;;;;2.70;2.22;;;;;;;;;;4993284;28;20247;-87
2022/06/08 05:28:46;;;;;;;2.00;1.90;;;;;;;;;;4980681;28;20213;-85
2022/06/08 05:32:13;;;;;;;1.40;1.35;;;;;;;;;;4990179;28;20635;-86
2022/06/08 05:34:40;;;;;;;1.33;1.23;;;;;;;;;;4961302;28;20235;-86
2022/06/08 05:37:08;;;;;;;1.83;1.73;;;;;;;;;;4994962;28;20207;-86
2022/06/08 05:39:36;;;;;;;2.13;1.98;;;;;;;;;;4994135;28;20207;-86
2022/06/08 05:42:06;;;;;;;2.28;2.17;;;;;;;;;;4993043;28;20647;-86
2022/06/08 05:44:35;;;;;;;1.73;1.63;;;;;;;;;;4992163;28;20228;-85
2022/06/08 05:47:04;;;;;;;1.60;1.50;;;;;;;;;;4996950;28;20289;-87
2022/06/08 05:49:34;;;;;;;1.20;1.20;;;;;;;;;;4996278;28;20236;-84
2022/06/08 05:52:03;;;;;;;2.20;2.00;;;;;;;;;;4996168;28;20207;-85
2022/06/08 05:54:32;;;;;;;1.30;1.30;;;;;;;;;;4996441;28;20226;-84
2022/06/08 05:57:18;;;;;;;1.20;1.20;;;;;;;;;;4996159;28;20214;-84
2022/06/08 05:59:49;;;;;;;1.05;1.05;;;;;;;;;;4996312;28;20276;-84
2022/06/08 06:02:26;;;;;;;1.63;1.52;;;;;;;;;;4996292;28;20274;-84
2022/06/08 06:04:57;;;;;;;1.80;1.70;;;;;;;;;;4977308;28;20228;-85
2022/06/08 06:07:25;;;;;;;1.73;1.63;;;;;;;;;;4978056;28;20577;-87
2022/06/08 06:09:56;;;;;;;1.77;1.67;;;;;;;;;;4996040;28;20207;-85
2022/06/08 06:12:24;;;;;;;1.45;1.38;;;;;;;;;;4995889;28;20219;-86
2022/06/08 06:14:53;;;;;;;1.50;1.40;;;;;;;;;;4995935;28;20427;-85
2022/06/08 06:18:04;;;;;;;1.42;1.33;;;;;;;;;;4995712;28;20286;-86
2022/06/08 06:20:38;;;;;;;1.77;1.67;;;;;;;;;;4977805;28;20212;-87
2022/06/08 06:23:20;;;;;;;1.55;1.45;;;;;;;;;;4995672;28;20692;-86
2022/06/08 06:26:08;;;;;;;2.13;1.92;;;;;;;;;;4996826;28;20300;-87
2022/06/08 06:28:43;;;;;;;1.27;1.27;;;;;;;;;;5000500;28;20826;-86
2022/06/08 06:31:23;;;;;;;1.50;1.40;;;;;;;;;;5005691;28;20207;-84
2022/06/08 06:33:50;;;;;;;1.75;1.65;;;;;;;;;;5003391;28;20207;-83
2022/06/08 06:36:26;;;;;;;1.90;1.80;;;;;;;;;;4996388;28;20234;-84
2022/06/08 06:42:13;;;;;;;1.73;1.63;;;;;;;;;;4994389;28;20223;-84
2022/06/08 06:44:48;;;;;;;1.42;1.33;;;;;;;;;;4995504;28;20648;-84
2022/06/08 06:47:29;;;;;;;1.95;1.67;;;;;;;;;;4995934;28;20684;-82
2022/06/08 06:50:16;;;;;;;2.17;2.00;;;;;;;;;;4987968;28;20203;-84
2022/06/08 06:52:46;;;;;;;2.33;2.13;;;;;;;;;;4995073;28;20214;-84
2022/06/08 06:55:22;;;;;;;1.42;1.33;;;;;;;;;;4995391;28;20220;-82
2022/06/08 06:57:50;;;;;;;1.52;1.42;;;;;;;;;;4995531;28;20246;-84
2022/06/08 07:00:18;;;;;;;2.03;1.92;;;;;;;;;;4995894;28;20628;-85
2022/06/08 07:02:50;;;;;;;1.40;1.38;;;;;;;;;;4995241;28;20204;-82
2022/06/08 07:05:21;;;;;;;3.40;1.70;;;;;;;;;;4995408;28;20231;-87
2022/06/08 07:07:59;;;;;;;2.65;1.98;;;;;;;;;;4995868;28;20307;-87
2022/06/08 07:10:36;;;;;;;1.73;1.63;;;;;;;;;;4984081;28;20561;-88
2022/06/08 07:13:18;;;;;;;1.80;1.70;;;;;;;;;;4984709;28;20668;-88
2022/06/08 07:15:47;;;;;;;2.10;2.00;;;;;;;;;;4996661;28;20723;-86
2022/06/08 07:18:17;;;;;;;1.60;1.50;;;;;;;;;;4996553;28;20232;-86
2022/06/08 07:20:45;;;;;;;1.70;1.60;;;;;;;;;;4995425;28;20294;-83
2022/06/08 07:23:12;;;;;;;1.85;1.75;;;;;;;;;;4995235;28;20207;-84
2022/06/08 07:25:40;;;;;;;1.73;1.63;;;;;;;;;;4995359;28;20314;-84
2022/06/08 07:28:08;;;;;;;1.95;1.85;;;;;;;;;;4994942;28;20266;-86
2022/06/08 07:30:37;;;;;;;1.77;1.67;;;;;;;;;;4990343;28;20200;-85
2022/06/08 07:33:05;;;;;;;1.10;1.10;;;;;;;;;;4991806;28;20211;-87
2022/06/08 07:35:34;;;;;;;1.50;1.20;;;;;;;;;;4995012;28;20243;-86
2022/06/08 07:38:01;;;;;;;5.28;1.50;;;;;;;;;;4995790;28;20302;-84
2022/06/08 07:40:32;;;;;;;1.17;1.17;;;;;;;;;;4997183;28;20207;-89
2022/06/08 07:42:59;;;;;;;1.13;1.13;;;;;;;;;;4996892;28;20200;-84
2022/06/08 07:45:27;;;;;;;1.33;1.23;;;;;;;;;;4996049;28;20266;-85
2022/06/08 07:50:42;;;;;;;1.30;1.30;;;;;;;;;;4997834;28;20217;-84
2022/06/08 07:53:10;;;;;;;1.98;1.50;;;;;;;;;;4994371;28;20330;-85
2022/06/08 07:55:38;;;;;;;1.80;1.35;;;;;;;;;;4995302;28;20286;-85
2022/06/08 07:58:07;;;;;;;1.30;1.20;;;;;;;;;;4987865;28;20199;-86
2022/06/08 08:00:35;;;;;;;1.00;1.00;;;;;;;;;;4994706;28;20200;-86
2022/06/08 08:03:03;;;;;;;1.33;1.30;;;;;;;;;;4993361;28;20242;-86
2022/06/08 08:05:31;;;;;;;1.33;1.23;;;;;;;;;;4993813;28;20231;-86
2022/06/08 08:08:00;;;;;;;1.00;1.00;;;;;;;;;;4993159;28;20287;-87
2022/06/08 08:10:28;;;;;;;1.10;1.10;;;;;;;;;;4993722;28;20218;-86
2022/06/08 08:12:56;;;;;;;1.30;1.20;;;;;;;;;;4993462;28;20582;-87
2022/06/08 08:15:25;;;;;;;1.20;1.20;;;;;;;;;;4993918;28;20242;-86
2022/06/08 08:17:52;;;;;;;1.00;1.00;;;;;;;;;;4993518;28;20299;-85
2022/06/08 08:20:23;;;;;;;1.85;1.60;;;;;;;;;;4994082;28;20204;-87
2022/06/08 08:22:51;;;;;;;1.17;1.00;;;;;;;;;;4993557;28;20188;-87
2022/06/08 08:25:20;;;;;;;1.35;1.25;;;;;;;;;;4993836;28;20223;-88
2022/06/08 08:27:48;;;;;;;5.20;1.88;;;;;;;;;;4993610;28;20231;-87
2022/06/08 08:30:18;;;;;;;1.50;1.40;;;;;;;;;;4993528;28;20223;-87
2022/06/08 08:32:46;;;;;;;1.38;1.27;;;;;;;;;;4993441;28;20210;-88
2022/06/08 08:35:16;;;;;;;2.00;1.35;;;;;;;;;;4993512;28;20290;-88
2022/06/08 08:37:59;;;;;;;1.15;1.15;;;;;;;;;;4993913;28;20203;-88
2022/06/08 08:40:45;;;;;;;1.67;0.98;;;;;;;;;;4994299;28;20203;-88
2022/06/08 08:43:16;;;;;;;1.75;1.65;;;;;;;;;;4987723;28;20564;-88
2022/06/08 08:46:08;;;;;;;1.20;1.20;;;;;;;;;;4993420;28;20237;-89
2022/06/08 08:48:47;;;;;;;1.40;1.23;;;;;;;;;;4993976;28;20658;-89
2022/06/08 08:51:20;;;;;;;1.23;1.13;;;;;;;;;;4993806;28;20676;-87
2022/06/08 08:54:07;;;;;;;1.50;1.40;;;;;;;;;;4993274;28;20282;-87
2022/06/08 08:56:39;;;;;;;1.85;1.75;;;;;;;;;;4994251;28;20212;-88
2022/06/08 08:59:15;;;;;;;1.63;1.52;;;;;;;;;;4993362;28;20281;-88
2022/06/08 09:01:46;;;;;;;2.25;1.00;;;;;;;;;;4993135;28;20214;-89
2022/06/08 09:04:23;;;;;;;1.38;1.38;;;;;;;;;;4993978;28;20813;-87
2022/06/08 09:06:51;;;;;;;1.55;1.45;;;;;;;;;;4974404;28;20270;-88
2022/06/08 09:09:24;;;;;;;2.28;1.70;;;;;;;;;;4986403;28;20224;-89
2022/06/08 09:11:53;;;;;;;1.40;1.02;;;;;;;;;;4992827;28;20261;-87
2022/06/08 09:14:24;;;;;;;1.00;1.00;;;;;;;;;;4993031;28;20307;-87
2022/06/08 09:17:13;;;;;;;1.10;1.10;;;;;;;;;;4993284;28;20258;-87
2022/06/08 09:19:44;;;;;;;1.00;1.00;;;;;;;;;;4991984;28;20219;-86
2022/06/08 09:22:25;;;;;;;1.20;1.10;;;;;;;;;;4996726;28;20207;-88
2022/06/08 09:24:57;;;;;;;1.92;1.40;;;;;;;;;;4997034;28;20251;-87
2022/06/08 09:27:29;;;;;;;1.05;1.05;;;;;;;;;;4977725;28;20258;-87
2022/06/08 09:30:14;;;;;;;1.10;1.10;;;;;;;;;;4996478;28;20274;-84
2022/06/08 09:32:46;;;;;;;0.93;0.90;;;;;;;;;;4976959;28;20205;-87
2022/06/08 09:35:23;;;;;;;1.58;1.45;;;;;;;;;;5019986;22;20259;-81
2022/06/08 09:37:53;;;;;;;1.60;1.50;;;;;;;;;;5017238;28;20686;-82
2022/06/08 09:40:38;;;;;;;1.10;1.10;;;;;;;;;;5017126;28;20671;-83
2022/06/08 09:43:40;;;;;;;1.00;1.00;;;;;;;;;;5016543;28;20729;-83
2022/06/08 09:46:11;;;;;;;1.30;1.20;;;;;;;;;;5016067;28;20737;-83
2022/06/08 09:51:55;;;;;;;1.42;1.17;;;;;;;;;;5016785;28;20214;-83
2022/06/08 09:54:29;;;;;;;1.52;1.42;;;;;;;;;;5016399;28;20234;-83
2022/06/08 09:57:20;;;;;;;1.25;1.17;;;;;;;;;;5016807;28;20202;-83
2022/06/08 10:00:08;;;;;;;2.20;1.50;;;;;;;;;;5017556;28;20202;-84
2022/06/08 10:02:46;;;;;;;1.05;1.05;;;;;;;;;;5015335;28;20207;-83
2022/06/08 10:05:26;;;;;;;1.27;1.20;;;;;;;;;;5015932;28;20257;-83
2022/06/08 10:08:19;;;;;;;1.08;1.08;;;;;;;;;;5016401;28;20230;-83
2022/06/08 10:10:57;;;;;;;1.00;1.00;;;;;;;;;;5016621;28;20609;-83
2022/06/08 10:13:34;;;;;;;0.90;0.90;;;;;;;;;;5015928;28;20234;-83
2022/06/08 10:16:06;;;;;;;1.10;1.10;;;;;;;;;;5017126;28;20227;-82
2022/06/08 10:18:39;;;;;;;1.40;1.30;;;;;;;;;;5016019;28;20566;-82
2022/06/08 10:21:15;;;;;;;3.05;1.85;;;;;;;;;;5015606;28;20207;-82
2022/06/08 10:23:50;;;;;;;1.00;1.00;;;;;;;;;;5014841;28;20713;-82
2022/06/08 10:26:25;;;;;;;1.70;1.60;;;;;;;;;;5015472;28;20222;-83
2022/06/08 10:28:56;;;;;;;1.00;0.90;;;;;;;;;;5016152;28;20289;-83
2022/06/08 10:31:32;;;;;;;0.80;0.80;;;;;;;;;;5008676;28;20286;-83
2022/06/08 10:34:06;;;;;;;0.88;0.88;;;;;;;;;;5015128;28;20234;-82
2022/06/08 10:36:34;;;;;;;1.30;1.20;;;;;;;;;;5015349;28;20298;-84
2022/06/08 10:39:04;;;;;;;0.90;0.90;;;;;;;;;;5016596;28;20250;-85
2022/06/08 10:44:37;;;;;;;1.20;1.10;;;;;;;;;;5015920;28;20214;-81
2022/06/08 10:47:30;;;;;;;1.15;1.15;;;;;;;;;;5017475;28;20238;-82
2022/06/08 10:50:17;;;;;;;1.58;0.93;;;;;;;;;;5015844;28;20703;-82
2022/06/08 10:52:48;;;;;;;1.55;1.45;;;;;;;;;;5016707;28;20242;-81
2022/06/08 10:55:43;;;;;;;1.10;1.10;;;;;;;;;;5018077;28;20267;-84
2022/06/08 10:58:15;;;;;;;0.90;0.90;;;;;;;;;;4972929;28;20753;-81
2022/06/08 11:00:59;;;;;;;1.27;1.10;;;;;;;;;;5018539;28;20218;-84
2022/06/08 11:03:59;;;;;;;0.90;0.90;;;;;;;;;;5011660;28;20207;-84
2022/06/08 11:06:58;;;;;;;1.00;1.00;;;;;;;;;;5019577;28;20257;-82
2022/06/08 11:10:10;;;;;;;1.42;1.27;;;;;;;;;;5018784;28;20226;-81
2022/06/08 11:12:52;;;;;;;1.38;1.27;;;;;;;;;;4973590;28;20718;-82
2022/06/08 11:15:42;;;;;;;1.10;1.10;;;;;;;;;;5018677;28;20233;-81
2022/06/08 11:18:31;;;;;;;1.05;1.00;;;;;;;;;;5017226;28;20234;-82
2022/06/08 11:21:39;;;;;;;1.23;1.13;;;;;;;;;;5017650;28;20568;-82
2022/06/08 11:24:21;;;;;;;1.10;1.10;;;;;;;;;;5017673;28;20211;-82
2022/06/08 11:27:30;;;;;;;0.88;0.88;;;;;;;;;;5017669;28;20234;-82
2022/06/08 11:29:59;;;;;;;0.93;0.93;;;;;;;;;;5013238;28;20237;-82
2022/06/08 11:33:15;;;;;;;1.00;1.00;;;;;;;;;;5016049;28;20206;-81
2022/06/08 11:36:32;;;;;;;0.98;0.98;;;;;;;;;;5011856;28;20245;-82
2022/06/08 11:39:05;;;;;;;1.10;1.00;;;;;;;;;;5009743;28;20281;-81
2022/06/08 11:41:38;;;;;;;1.30;1.02;;;;;;;;;;5015981;28;20207;-80
2022/06/08 11:44:18;;;;;;;0.88;0.88;;;;;;;;;;5016165;28;20207;-81
2022/06/08 11:46:49;;;;;;;1.25;1.00;;;;;;;;;;5012629;28;20686;-82
2022/06/08 11:49:40;;;;;;;0.80;0.80;;;;;;;;;;5015985;28;20710;-83
2022/06/08 11:52:28;;;;;;;1.30;1.20;;;;;;;;;;5011019;28;20302;-82
2022/06/08 11:55:25;;;;;;;1.55;1.00;;;;;;;;;;5012818;28;20310;-81
2022/06/08 11:57:59;;;;;;;0.80;0.80;;;;;;;;;;5009850;28;20647;-79
2022/06/08 12:00:34;;;;;;;0.80;0.80;;;;;;;;;;5015158;28;20238;-83
2022/06/08 12:03:07;;;;;;;0.80;0.80;;;;;;;;;;5015532;28;20594;-82
2022/06/08 12:05:35;;;;;;;1.23;1.13;;;;;;;;;;5016982;28;20250;-82
2022/06/08 12:08:11;;;;;;;0.82;0.82;;;;;;;;;;5014977;28;20645;-82
2022/06/08 12:10:41;;;;;;;1.60;1.10;;;;;;;;;;5015562;28;20284;-82
2022/06/08 12:13:20;;;;;;;0.85;0.85;;;;;;;;;;5014842;28;20234;-81
2022/06/08 12:15:51;;;;;;;1.17;1.08;;;;;;;;;;5015701;28;20223;-83
2022/06/08 12:18:46;;;;;;;1.00;1.00;;;;;;;;;;5015104;28;20597;-82
2022/06/08 12:21:25;;;;;;;0.95;0.95;;;;;;;;;;5014932;28;20209;-81
2022/06/08 12:24:25;;;;;;;1.00;1.00;;;;;;;;;;5014377;28;20293;-82
2022/06/08 12:27:15;;;;;;;0.90;0.90;;;;;;;;;;5015356;28;20225;-82
2022/06/08 12:29:53;;;;;;;1.02;0.93;;;;;;;;;;5014855;28;20695;-81
2022/06/08 12:32:36;;;;;;;0.80;0.80;;;;;;;;;;5013614;28;20261;-82
2022/06/08 12:35:31;;;;;;;0.70;0.70;;;;;;;;;;5015022;28;20256;-82
2022/06/08 12:38:19;;;;;;;0.85;0.80;;;;;;;;;;5012800;28;20679;-82
2022/06/08 12:41:15;;;;;;;0.80;0.80;;;;;;;;;;5015514;28;20641;-82
2022/06/08 12:43:48;;;;;;;0.90;0.60;;;;;;;;;;4980239;28;20249;-82
2022/06/08 12:46:31;;;;;;;0.68;0.68;;;;;;;;;;5009647;28;20258;-82
2022/06/08 12:49:16;;;;;;;0.60;0.60;;;;;;;;;;5011747;28;20217;-82
2022/06/08 12:51:49;;;;;;;1.48;0.88;;;;;;;;;;5015703;28;20223;-82
2022/06/08 12:54:23;;;;;;;0.70;0.70;;;;;;;;;;5015277;28;20279;-83
2022/06/08 12:57:01;;;;;;;0.88;0.88;;;;;;;;;;5015481;28;20234;-83
2022/06/08 12:59:36;;;;;;;1.00;0.90;;;;;;;;;;5010219;28;20293;-83
2022/06/08 13:02:14;;;;;;;0.77;0.77;;;;;;;;;;5013698;28;20249;-82
2022/06/08 13:04:41;;;;;;;0.60;0.60;;;;;;;;;;5015989;28;20269;-82
2022/06/08 13:07:13;;;;;;;0.82;0.82;;;;;;;;;;5015780;28;20269;-83
2022/06/08 13:09:40;;;;;;;0.93;0.93;;;;;;;;;;5016460;28;20238;-83
2022/06/08 13:12:11;;;;;;;0.98;0.98;;;;;;;;;;5014061;28;20686;-82
2022/06/08 13:14:41;;;;;;;0.68;0.68;;;;;;;;;;5015824;28;20584;-82
2022/06/08 13:17:09;;;;;;;0.40;0.40;;;;;;;;;;5015785;28;20211;-83
2022/06/08 13:19:37;;;;;;;1.08;0.68;;;;;;;;;;5015178;28;20249;-82
2022/06/08 13:22:05;;;;;;;1.27;0.65;;;;;;;;;;5014033;28;20231;-82
2022/06/08 13:24:33;;;;;;;0.47;0.47;;;;;;;;;;5016110;28;20262;-82
2022/06/08 13:27:01;;;;;;;0.80;0.80;;;;;;;;;;5016004;28;20211;-82
2022/06/08 13:29:28;;;;;;;1.20;0.90;;;;;;;;;;5015456;28;20237;-82
2022/06/08 13:31:57;;;;;;;0.68;0.68;;;;;;;;;;5013650;28;20270;-83
2022/06/08 13:34:25;;;;;;;0.70;0.70;;;;;;;;;;5013816;28;20247;-82
2022/06/08 13:37:00;;;;;;;0.80;0.70;;;;;;;;;;5013761;28;20243;-82
2022/06/08 13:39:31;;;;;;;0.93;0.88;;;;;;;;;;5014117;28;20206;-81
2022/06/08 13:42:02;;;;;;;0.70;0.70;;;;;;;;;;5014712;28;20226;-82
2022/06/08 13:44:34;;;;;;;0.70;0.70;;;;;;;;;;5007923;28;20230;-81
2022/06/08 13:47:08;;;;;;;3.35;2.88;;;;;;;;;;5007955;28;20239;-82
2022/06/08 13:49:43;;;;;;;3.92;3.30;;;;;;;;;;5013230;28;20584;-80
2022/06/08 13:52:14;;;;;;;1.70;1.58;;;;;;;;;;5012811;28;20607;-81
2022/06/08 13:54:45;;;;;;;1.45;1.33;;;;;;;;;;5013987;28;20618;-80
2022/06/08 13:57:15;;;;;;;1.10;1.10;;;;;;;;;;5013713;28;20246;-81
2022/06/08 13:59:46;;;;;;;0.82;0.80;;;;;;;;;;5015150;28;20207;-81
2022/06/08 14:02:21;;;;;;;0.70;0.70;;;;;;;;;;5013044;28;20257;-82
2022/06/08 14:04:52;;;;;;;1.00;0.90;;;;;;;;;;5013620;28;20266;-82
2022/06/08 14:13:04;;;;;;;0.60;0.60;;;;;;;;;;4977354;28;20231;-82
2022/06/08 14:15:32;;;;;;;0.90;0.75;;;;;;;;;;5018778;28;20233;-81
2022/06/08 14:18:03;;;;;;;0.70;0.70;;;;;;;;;;5018628;28;20222;-83
2022/06/08 14:20:36;;;;;;;0.90;0.73;;;;;;;;;;5019362;28;20270;-81
2022/06/08 14:23:08;;;;;;;0.60;0.60;;;;;;;;;;5012022;28;20608;-82
2022/06/08 14:25:37;;;;;;;1.08;0.60;;;;;;;;;;5010662;28;20231;-81
2022/06/08 14:28:05;;;;;;;1.17;1.17;;;;;;;;;;5016504;28;20203;-81
2022/06/08 14:30:33;;;;;;;0.60;0.60;;;;;;;;;;5017402;28;20223;-82
2022/06/08 14:33:07;;;;;;;0.90;0.90;;;;;;;;;;5016400;28;20710;-81
2022/06/08 14:35:39;;;;;;;0.88;0.88;;;;;;;;;;5017453;28;20276;-81
2022/06/08 14:38:10;;;;;;;0.60;0.60;;;;;;;;;;5017401;28;20207;-82
2022/06/08 14:40:39;;;;;;;0.50;0.50;;;;;;;;;;5016767;28;20286;-81
2022/06/08 14:43:07;;;;;;;2.90;1.40;;;;;;;;;;5017298;28;20261;-82
2022/06/08 14:45:36;;;;;;;1.50;1.00;;;;;;;;;;5017769;28;20254;-81
2022/06/08 14:48:15;;;;;;;1.75;0.90;;;;;;;;;;5017283;28;20248;-81
2022/06/08 14:50:44;;;;;;;1.00;0.98;;;;;;;;;;5017117;28;20407;-81
2022/06/08 14:53:13;;;;;;;1.20;1.20;;;;;;;;;;5015688;28;20654;-80
2022/06/08 14:58:26;;;;;;;1.67;1.00;;;;;;;;;;5015699;28;20337;-80
2022/06/08 15:00:54;;;;;;;1.35;1.20;;;;;;;;;;5015398;28;20199;-80
2022/06/08 15:03:26;;;;;;;1.27;1.15;;;;;;;;;;5015029;28;20199;-78
2022/06/08 15:05:56;;;;;;;1.02;1.00;;;;;;;;;;5015403;28;20262;-80
2022/06/08 15:08:23;;;;;;;0.70;0.70;;;;;;;;;;5009411;28;20249;-79
2022/06/08 15:13:44;;;;;;;0.98;0.90;;;;;;;;;;5011158;28;20321;-80
2022/06/08 15:16:14;;;;;;;0.98;0.98;;;;;;;;;;5015745;28;20270;-81
2022/06/08 15:18:43;;;;;;;2.08;1.70;;;;;;;;;;5015102;28;20210;-82
2022/06/08 15:21:11;;;;;;;2.22;1.58;;;;;;;;;;5015451;28;20238;-80
2022/06/08 15:23:39;;;;;;;1.15;1.15;;;;;;;;;;5014009;28;20207;-79
2022/06/08 15:26:07;;;;;;;0.80;0.80;;;;;;;;;;5014479;28;20227;-79
2022/06/08 15:28:37;;;;;;;1.63;1.00;;;;;;;;;;5015058;28;20261;-80
2022/06/08 15:31:06;;;;;;;0.90;0.90;;;;;;;;;;5014398;28;20242;-79
2022/06/08 15:33:35;;;;;;;3.25;1.45;;;;;;;;;;5013744;28;20302;-78
2022/06/08 15:36:12;;;;;;;1.55;1.35;;;;;;;;;;5039485;23;20262;-81
2022/06/08 15:38:48;;;;;;;1.63;1.10;;;;;;;;;;5017417;28;20671;-80
2022/06/08 15:41:16;;;;;;;0.77;0.77;;;;;;;;;;5018128;28;20667;-78
2022/06/08 15:43:44;;;;;;;1.63;1.00;;;;;;;;;;5022178;28;20261;-81
2022/06/08 15:46:12;;;;;;;2.38;0.90;;;;;;;;;;5023591;28;20238;-79
2022/06/08 15:48:40;;;;;;;2.45;1.63;;;;;;;;;;5023384;28;20207;-82
2022/06/08 15:51:15;;;;;;;0.77;0.77;;;;;;;;;;5022618;28;20199;-81
2022/06/08 15:53:47;;;;;;;2.30;1.10;;;;;;;;;;5019476;28;20737;-81